Time;durP1;ratioP1;P1;durP2;ratioP2;P2;SDS_P1;SDS_P2;PMS_P1;PMS_P2;Temp;Humidity;BMP_temperature;BMP_pressure;BME280_temperature;BME280_humidity;BME280_pressure;Samples;Min_cycle;Max_cycle;Signal;HPM_P1;HPM_P2
2021/11/23 00:01:37;;;;;;;8.03;1.83;;;;;;;;;;4994622;28;20208;-65
2021/11/23 00:04:04;;;;;;;5.33;1.60;;;;;;;;;;4994914;28;20181;-65
2021/11/23 00:06:32;;;;;;;3.37;1.40;;;;;;;;;;4991329;28;20192;-65
2021/11/23 00:08:58;;;;;;;3.53;1.50;;;;;;;;;;4975821;28;21122;-65
2021/11/23 00:11:23;;;;;;;4.93;2.30;;;;;;;;;;4979882;28;20465;-65
2021/11/23 00:13:48;;;;;;;2.97;1.53;;;;;;;;;;4990840;28;20181;-65
2021/11/23 00:16:13;;;;;;;7.03;1.80;;;;;;;;;;4991407;28;20187;-65
2021/11/23 00:18:39;;;;;;;5.70;1.50;;;;;;;;;;5004880;28;22383;-65
2021/11/23 00:21:04;;;;;;;5.00;1.47;;;;;;;;;;4993803;28;20204;-65
2021/11/23 00:23:29;;;;;;;2.53;1.80;;;;;;;;;;4991756;28;20234;-65
2021/11/23 00:25:55;;;;;;;5.47;2.00;;;;;;;;;;4992299;28;20187;-65
2021/11/23 00:28:20;;;;;;;5.23;1.47;;;;;;;;;;4995479;28;20223;-65
2021/11/23 00:30:46;;;;;;;3.30;1.40;;;;;;;;;;4985904;28;20274;-65
2021/11/23 00:33:11;;;;;;;2.20;1.00;;;;;;;;;;4991745;28;20683;-65
2021/11/23 00:35:37;;;;;;;4.17;1.40;;;;;;;;;;4995133;28;20189;-65
2021/11/23 00:38:03;;;;;;;2.77;1.40;;;;;;;;;;4992950;28;20187;-65
2021/11/23 00:40:28;;;;;;;6.20;1.80;;;;;;;;;;4992028;28;21763;-65
2021/11/23 00:42:54;;;;;;;4.30;1.30;;;;;;;;;;4995061;28;20187;-65
2021/11/23 00:45:19;;;;;;;4.30;1.30;;;;;;;;;;4993375;28;20189;-65
2021/11/23 00:47:45;;;;;;;5.97;1.77;;;;;;;;;;4994517;28;20266;-65
2021/11/23 00:50:11;;;;;;;2.93;1.37;;;;;;;;;;4993100;28;20284;-65
2021/11/23 00:52:36;;;;;;;3.50;1.40;;;;;;;;;;4989997;28;20215;-65
2021/11/23 00:55:02;;;;;;;2.50;1.40;;;;;;;;;;4995049;28;20327;-65
2021/11/23 00:57:27;;;;;;;3.57;1.13;;;;;;;;;;4993380;28;20188;-65
2021/11/23 00:59:53;;;;;;;2.23;1.00;;;;;;;;;;4990944;28;20201;-65
2021/11/23 01:02:18;;;;;;;4.07;1.10;;;;;;;;;;4989370;28;20747;-65
2021/11/23 01:04:45;;;;;;;4.10;1.67;;;;;;;;;;4992519;28;20181;-65
2021/11/23 01:07:10;;;;;;;2.03;1.23;;;;;;;;;;4994846;28;20626;-65
2021/11/23 01:09:36;;;;;;;2.10;0.87;;;;;;;;;;4985844;28;20474;-65
2021/11/23 01:12:01;;;;;;;1.90;0.90;;;;;;;;;;4974424;28;20189;-64
2021/11/23 01:14:26;;;;;;;3.00;1.20;;;;;;;;;;4978518;28;20236;-65
2021/11/23 01:16:52;;;;;;;2.07;1.20;;;;;;;;;;4987038;28;20185;-65
2021/11/23 01:19:18;;;;;;;2.67;1.10;;;;;;;;;;4994030;28;20220;-65
2021/11/23 01:21:43;;;;;;;3.80;1.17;;;;;;;;;;4995596;28;20282;-65
2021/11/23 01:24:09;;;;;;;4.00;1.00;;;;;;;;;;4994334;28;20185;-65
2021/11/23 01:26:34;;;;;;;2.00;0.90;;;;;;;;;;4994597;28;21017;-65
2021/11/23 01:29:00;;;;;;;4.07;1.20;;;;;;;;;;4995809;28;20462;-65
2021/11/23 01:31:25;;;;;;;5.37;0.87;;;;;;;;;;4996594;28;20222;-65
2021/11/23 01:33:51;;;;;;;5.10;1.27;;;;;;;;;;4993338;28;20188;-65
2021/11/23 01:36:16;;;;;;;3.33;0.90;;;;;;;;;;4992415;28;20195;-65
2021/11/23 01:38:42;;;;;;;1.40;0.70;;;;;;;;;;4994417;28;20976;-65
2021/11/23 01:41:08;;;;;;;4.93;0.80;;;;;;;;;;4995434;28;20208;-65
2021/11/23 01:43:33;;;;;;;1.73;0.83;;;;;;;;;;4999084;28;24213;-65
2021/11/23 01:45:59;;;;;;;4.23;1.13;;;;;;;;;;4995720;28;20185;-65
2021/11/23 01:48:24;;;;;;;4.30;0.90;;;;;;;;;;4994073;28;20262;-65
2021/11/23 01:50:49;;;;;;;3.00;1.20;;;;;;;;;;5000286;28;20243;-65
2021/11/23 01:53:15;;;;;;;1.83;0.70;;;;;;;;;;4995839;28;20188;-64
2021/11/23 01:55:40;;;;;;;1.77;0.67;;;;;;;;;;4996373;28;20535;-64
2021/11/23 01:58:07;;;;;;;6.10;1.00;;;;;;;;;;4994312;28;21289;-65
2021/11/23 02:00:33;;;;;;;1.80;0.80;;;;;;;;;;4992881;28;20205;-65
2021/11/23 02:02:59;;;;;;;2.97;1.00;;;;;;;;;;4996654;28;21209;-65
2021/11/23 02:05:24;;;;;;;1.67;0.60;;;;;;;;;;4994430;28;20439;-65
2021/11/23 02:07:49;;;;;;;3.40;1.13;;;;;;;;;;4992004;28;20242;-65
2021/11/23 02:10:15;;;;;;;4.77;0.90;;;;;;;;;;4982020;28;20191;-64
2021/11/23 02:12:40;;;;;;;1.80;0.60;;;;;;;;;;4995753;28;20200;-65
2021/11/23 02:15:06;;;;;;;3.33;0.70;;;;;;;;;;4992562;28;20192;-64
2021/11/23 02:17:32;;;;;;;3.43;0.73;;;;;;;;;;4990720;28;20188;-64
2021/11/23 02:19:58;;;;;;;3.13;0.70;;;;;;;;;;4999537;28;20466;-64
2021/11/23 02:22:23;;;;;;;6.53;1.30;;;;;;;;;;4993260;28;20972;-64
2021/11/23 02:24:48;;;;;;;3.20;0.67;;;;;;;;;;4995866;28;20561;-64
2021/11/23 02:27:14;;;;;;;1.90;0.60;;;;;;;;;;5000587;28;20670;-64
2021/11/23 02:29:39;;;;;;;2.93;0.80;;;;;;;;;;4997016;28;20242;-64
2021/11/23 02:32:04;;;;;;;5.73;0.90;;;;;;;;;;4994966;28;20181;-64
2021/11/23 02:34:30;;;;;;;1.27;0.60;;;;;;;;;;4993307;28;20217;-64
2021/11/23 02:36:55;;;;;;;3.20;0.80;;;;;;;;;;4998912;28;20643;-63
2021/11/23 02:39:21;;;;;;;3.20;1.07;;;;;;;;;;4991139;28;20615;-64
2021/11/23 02:41:46;;;;;;;3.30;0.80;;;;;;;;;;4997577;28;20208;-64
2021/11/23 02:44:12;;;;;;;4.43;0.77;;;;;;;;;;4994236;28;20669;-64
2021/11/23 02:46:37;;;;;;;2.40;0.80;;;;;;;;;;4998792;28;20181;-64
2021/11/23 02:49:03;;;;;;;3.27;0.97;;;;;;;;;;4993181;28;20263;-64
2021/11/23 02:51:31;;;;;;;4.93;0.90;;;;;;;;;;4990653;28;20216;-64
2021/11/23 02:53:56;;;;;;;6.03;0.80;;;;;;;;;;4988837;28;20207;-63
2021/11/23 02:56:21;;;;;;;2.10;0.83;;;;;;;;;;4994863;28;20450;-64
2021/11/23 02:58:48;;;;;;;3.30;0.80;;;;;;;;;;4997851;28;20201;-64
2021/11/23 03:01:15;;;;;;;3.57;1.07;;;;;;;;;;4994731;28;20204;-64
2021/11/23 03:03:40;;;;;;;2.80;0.80;;;;;;;;;;4994983;28;20960;-64
2021/11/23 03:06:06;;;;;;;2.83;1.10;;;;;;;;;;5001715;28;20443;-64
2021/11/23 03:08:32;;;;;;;3.20;1.00;;;;;;;;;;4983838;28;20221;-64
2021/11/23 03:10:58;;;;;;;5.20;1.10;;;;;;;;;;4979816;28;20783;-64
2021/11/23 03:13:23;;;;;;;4.30;1.20;;;;;;;;;;4996821;28;20440;-64
2021/11/23 03:15:49;;;;;;;3.47;0.97;;;;;;;;;;4999947;28;20192;-64
2021/11/23 03:18:14;;;;;;;4.83;1.23;;;;;;;;;;4991611;28;20258;-64
2021/11/23 03:20:39;;;;;;;2.23;0.80;;;;;;;;;;4998155;28;20234;-64
2021/11/23 03:23:06;;;;;;;6.50;1.20;;;;;;;;;;4995497;28;20189;-64
2021/11/23 03:25:31;;;;;;;6.53;1.13;;;;;;;;;;4990916;28;20195;-64
2021/11/23 03:27:57;;;;;;;3.43;1.00;;;;;;;;;;4993660;28;20435;-64
2021/11/23 03:30:25;;;;;;;5.50;1.00;;;;;;;;;;4997901;28;20763;-64
2021/11/23 03:32:51;;;;;;;3.00;1.33;;;;;;;;;;4997635;28;20220;-64
2021/11/23 03:35:18;;;;;;;3.40;1.00;;;;;;;;;;4996411;28;20470;-64
2021/11/23 03:37:43;;;;;;;6.70;1.10;;;;;;;;;;4994208;28;20447;-64
2021/11/23 03:40:09;;;;;;;3.83;0.80;;;;;;;;;;4995671;28;21135;-64
2021/11/23 03:42:34;;;;;;;2.83;1.00;;;;;;;;;;4996474;28;20195;-64
2021/11/23 03:45:00;;;;;;;4.63;1.20;;;;;;;;;;4997807;28;20230;-64
2021/11/23 03:47:27;;;;;;;4.97;1.00;;;;;;;;;;4999386;28;20222;-64
2021/11/23 03:49:52;;;;;;;7.10;1.30;;;;;;;;;;4993266;28;20299;-64
2021/11/23 03:52:18;;;;;;;3.57;0.90;;;;;;;;;;4995662;28;20964;-64
2021/11/23 03:54:43;;;;;;;2.80;0.87;;;;;;;;;;4995446;28;20180;-64
2021/11/23 03:57:08;;;;;;;4.50;1.50;;;;;;;;;;4993338;28;20189;-64
2021/11/23 03:59:34;;;;;;;3.20;1.10;;;;;;;;;;4993157;28;20219;-64
2021/11/23 04:01:59;;;;;;;4.43;1.30;;;;;;;;;;4990679;28;20207;-64
2021/11/23 04:04:24;;;;;;;6.10;1.20;;;;;;;;;;4993221;28;20284;-64
2021/11/23 04:06:50;;;;;;;3.50;0.80;;;;;;;;;;4993344;28;21161;-64
2021/11/23 04:09:15;;;;;;;4.60;1.10;;;;;;;;;;4991193;28;20654;-64
2021/11/23 04:11:41;;;;;;;4.10;1.20;;;;;;;;;;4985534;28;20723;-64
2021/11/23 04:14:07;;;;;;;7.33;1.23;;;;;;;;;;4983875;28;20196;-64
2021/11/23 04:16:32;;;;;;;4.60;1.20;;;;;;;;;;4997023;28;20466;-64
2021/11/23 04:18:58;;;;;;;4.63;0.90;;;;;;;;;;4988188;28;20216;-64
2021/11/23 04:21:23;;;;;;;7.37;1.63;;;;;;;;;;4996228;28;20231;-64
2021/11/23 04:23:48;;;;;;;4.43;0.77;;;;;;;;;;4989756;28;20214;-64
2021/11/23 04:26:14;;;;;;;3.97;1.07;;;;;;;;;;4995474;28;20635;-64
2021/11/23 04:28:39;;;;;;;3.77;1.10;;;;;;;;;;4994807;28;20240;-64
2021/11/23 04:31:05;;;;;;;5.40;1.10;;;;;;;;;;4995186;28;20184;-64
2021/11/23 04:33:30;;;;;;;6.40;1.40;;;;;;;;;;4991135;28;20194;-64
2021/11/23 04:35:56;;;;;;;3.63;1.13;;;;;;;;;;4993266;28;20696;-64
2021/11/23 04:38:22;;;;;;;1.57;0.87;;;;;;;;;;4992046;28;20261;-64
2021/11/23 04:40:48;;;;;;;5.40;0.83;;;;;;;;;;4993381;28;23604;-64
2021/11/23 04:43:13;;;;;;;4.27;1.57;;;;;;;;;;4994104;28;20509;-64
2021/11/23 04:45:39;;;;;;;6.10;1.37;;;;;;;;;;4990415;28;27268;-64
2021/11/23 04:48:05;;;;;;;5.53;1.40;;;;;;;;;;4997191;28;20403;-64
2021/11/23 04:50:31;;;;;;;4.00;1.10;;;;;;;;;;4992197;28;20192;-64
2021/11/23 04:52:56;;;;;;;4.70;1.20;;;;;;;;;;4991315;28;20706;-64
2021/11/23 04:55:22;;;;;;;3.57;1.40;;;;;;;;;;4993629;28;20446;-64
2021/11/23 04:57:47;;;;;;;6.30;1.20;;;;;;;;;;4996661;28;20279;-64
2021/11/23 05:00:14;;;;;;;6.13;1.40;;;;;;;;;;4998708;28;20184;-64
2021/11/23 05:02:40;;;;;;;4.63;1.33;;;;;;;;;;4994206;28;20290;-64
2021/11/23 05:05:06;;;;;;;11.13;1.90;;;;;;;;;;4997588;28;20435;-64
2021/11/23 05:07:31;;;;;;;7.93;1.20;;;;;;;;;;4993823;28;20183;-65
2021/11/23 05:09:56;;;;;;;4.93;0.97;;;;;;;;;;4995986;28;20682;-64
2021/11/23 05:12:22;;;;;;;7.00;1.30;;;;;;;;;;4998462;28;20181;-64
2021/11/23 05:14:47;;;;;;;9.87;1.83;;;;;;;;;;4997326;28;20270;-64
2021/11/23 05:17:13;;;;;;;5.23;1.57;;;;;;;;;;4999145;28;20251;-64
2021/11/23 05:19:38;;;;;;;4.20;1.33;;;;;;;;;;4997419;28;20197;-64
2021/11/23 05:22:04;;;;;;;4.70;1.23;;;;;;;;;;4998417;28;20205;-64
2021/11/23 05:24:29;;;;;;;7.30;1.33;;;;;;;;;;4992343;28;20190;-64
2021/11/23 05:26:55;;;;;;;4.83;1.20;;;;;;;;;;4992768;28;20185;-64
2021/11/23 05:29:20;;;;;;;4.70;1.03;;;;;;;;;;4997093;28;20244;-64
2021/11/23 05:31:45;;;;;;;5.70;1.13;;;;;;;;;;4995823;28;20180;-64
2021/11/23 05:34:11;;;;;;;3.70;1.20;;;;;;;;;;4994634;28;20272;-64
2021/11/23 05:36:36;;;;;;;3.77;1.00;;;;;;;;;;4995906;28;20231;-64
2021/11/23 05:39:02;;;;;;;3.23;0.87;;;;;;;;;;4993758;28;20209;-63
2021/11/23 05:41:28;;;;;;;3.60;1.83;;;;;;;;;;4994025;28;20217;-64
2021/11/23 05:43:54;;;;;;;1.90;0.80;;;;;;;;;;4999670;28;20436;-65
2021/11/23 05:46:19;;;;;;;2.60;1.00;;;;;;;;;;4998568;28;21012;-63
2021/11/23 05:48:44;;;;;;;2.20;0.77;;;;;;;;;;4997565;28;20208;-66
2021/11/23 05:51:11;;;;;;;2.67;0.80;;;;;;;;;;4996642;28;20189;-64
2021/11/23 05:53:39;;;;;;;2.30;0.93;;;;;;;;;;4995859;28;20200;-64
2021/11/23 05:56:04;;;;;;;1.67;0.90;;;;;;;;;;4995666;28;20479;-64
2021/11/23 05:58:29;;;;;;;3.27;0.80;;;;;;;;;;4994088;28;20471;-64
2021/11/23 06:00:55;;;;;;;3.10;1.23;;;;;;;;;;4991976;28;20205;-64
2021/11/23 06:03:20;;;;;;;8.07;1.43;;;;;;;;;;4986384;28;20702;-64
2021/11/23 06:05:46;;;;;;;3.40;0.90;;;;;;;;;;4988242;28;20591;-63
2021/11/23 06:08:11;;;;;;;2.40;1.20;;;;;;;;;;4997207;28;20269;-64
2021/11/23 06:10:37;;;;;;;3.63;1.07;;;;;;;;;;4996094;28;20188;-64
2021/11/23 06:13:02;;;;;;;2.40;0.87;;;;;;;;;;4988782;28;20219;-65
2021/11/23 06:15:28;;;;;;;2.50;0.87;;;;;;;;;;4993198;28;20189;-64
2021/11/23 06:18:00;;;;;;;4.23;0.80;;;;;;;;;;4995976;28;20272;-64
2021/11/23 06:20:26;;;;;;;5.63;1.20;;;;;;;;;;4990570;28;21134;-64
2021/11/23 06:22:53;;;;;;;6.90;1.10;;;;;;;;;;4988282;28;20443;-64
2021/11/23 06:25:18;;;;;;;4.13;0.80;;;;;;;;;;4992393;28;20181;-64
2021/11/23 06:27:44;;;;;;;7.17;1.00;;;;;;;;;;4988086;28;20505;-65
2021/11/23 06:30:09;;;;;;;3.77;0.90;;;;;;;;;;4994227;28;20196;-66
2021/11/23 06:32:34;;;;;;;10.30;1.30;;;;;;;;;;4991632;28;20199;-64
2021/11/23 06:35:00;;;;;;;8.13;1.80;;;;;;;;;;4993921;28;21739;-64
2021/11/23 06:37:25;;;;;;;6.43;1.50;;;;;;;;;;4992562;28;20189;-63
2021/11/23 06:39:50;;;;;;;4.70;1.20;;;;;;;;;;5000872;28;20736;-64
2021/11/23 06:42:16;;;;;;;4.30;1.43;;;;;;;;;;4994165;28;20698;-64
2021/11/23 06:44:41;;;;;;;4.47;1.27;;;;;;;;;;4990212;28;20181;-64
2021/11/23 06:47:07;;;;;;;4.20;1.00;;;;;;;;;;4985537;28;20255;-66
2021/11/23 06:49:32;;;;;;;5.23;1.40;;;;;;;;;;4994740;28;20217;-64
2021/11/23 06:51:57;;;;;;;2.67;1.20;;;;;;;;;;4993848;28;20193;-63
2021/11/23 06:54:22;;;;;;;3.13;0.80;;;;;;;;;;4984321;28;20188;-64
2021/11/23 06:56:53;;;;;;;5.23;1.00;;;;;;;;;;4994389;28;20200;-64
2021/11/23 06:59:19;;;;;;;4.63;1.13;;;;;;;;;;4994409;28;20216;-64
2021/11/23 07:01:44;;;;;;;2.70;0.80;;;;;;;;;;4993079;28;20540;-64
2021/11/23 07:04:09;;;;;;;3.80;1.03;;;;;;;;;;4990812;28;20949;-64
2021/11/23 07:06:34;;;;;;;6.17;1.43;;;;;;;;;;4989749;28;21294;-64
2021/11/23 07:09:00;;;;;;;2.93;1.17;;;;;;;;;;4994027;28;20243;-64
2021/11/23 07:11:25;;;;;;;3.63;1.03;;;;;;;;;;4988752;28;20264;-64
2021/11/23 07:13:50;;;;;;;2.53;0.90;;;;;;;;;;4998107;28;20196;-64
2021/11/23 07:16:16;;;;;;;5.77;1.13;;;;;;;;;;4988385;28;20177;-64
2021/11/23 07:18:41;;;;;;;2.50;1.00;;;;;;;;;;4989425;28;20325;-64
2021/11/23 07:21:06;;;;;;;4.90;1.20;;;;;;;;;;4992487;28;20208;-64
2021/11/23 07:23:32;;;;;;;6.23;1.17;;;;;;;;;;4994118;28;20631;-63
2021/11/23 07:25:57;;;;;;;4.23;1.10;;;;;;;;;;4986685;28;20389;-64
2021/11/23 07:28:22;;;;;;;7.50;1.20;;;;;;;;;;4992175;28;20228;-63
2021/11/23 07:30:48;;;;;;;8.00;1.50;;;;;;;;;;4991218;28;20554;-63
2021/11/23 07:33:13;;;;;;;4.20;1.40;;;;;;;;;;4990750;28;20670;-63
2021/11/23 07:35:38;;;;;;;6.87;1.30;;;;;;;;;;4998474;28;21105;-64
2021/11/23 07:38:04;;;;;;;4.37;1.40;;;;;;;;;;4990063;28;20276;-64
2021/11/23 07:40:29;;;;;;;3.90;1.03;;;;;;;;;;4986909;28;20569;-63
2021/11/23 07:42:55;;;;;;;5.20;1.33;;;;;;;;;;4996659;28;20191;-63
2021/11/23 07:45:21;;;;;;;4.87;1.63;;;;;;;;;;4996042;28;20203;-63
2021/11/23 07:47:46;;;;;;;3.43;1.20;;;;;;;;;;4995172;28;21357;-63
2021/11/23 07:50:12;;;;;;;4.97;1.47;;;;;;;;;;4998487;28;20552;-63
2021/11/23 07:52:38;;;;;;;4.07;1.33;;;;;;;;;;4989437;28;20199;-63
2021/11/23 07:55:04;;;;;;;8.00;1.90;;;;;;;;;;4982417;28;20889;-63
2021/11/23 07:57:29;;;;;;;3.67;1.30;;;;;;;;;;4987974;28;20189;-63
2021/11/23 07:59:54;;;;;;;6.10;1.33;;;;;;;;;;4992052;28;20282;-64
2021/11/23 08:02:20;;;;;;;3.50;1.20;;;;;;;;;;4990460;28;20208;-64
2021/11/23 08:04:45;;;;;;;5.37;1.43;;;;;;;;;;4990969;28;20185;-63
2021/11/23 08:07:10;;;;;;;5.33;1.57;;;;;;;;;;4992019;28;20208;-64
2021/11/23 08:09:36;;;;;;;2.43;1.10;;;;;;;;;;4999654;28;20197;-64
2021/11/23 08:12:03;;;;;;;3.87;1.33;;;;;;;;;;4994831;28;20724;-63
2021/11/23 08:14:28;;;;;;;1.30;0.97;;;;;;;;;;4997339;28;20678;-64
2021/11/23 08:16:54;;;;;;;3.70;1.40;;;;;;;;;;4998251;28;20451;-64
2021/11/23 08:19:20;;;;;;;4.87;1.20;;;;;;;;;;4998463;28;20585;-63
2021/11/23 08:21:45;;;;;;;4.77;1.33;;;;;;;;;;4996607;28;20478;-63
2021/11/23 08:24:10;;;;;;;4.10;1.00;;;;;;;;;;4996178;28;20268;-64
2021/11/23 08:26:36;;;;;;;2.90;1.20;;;;;;;;;;4996168;28;20185;-64
2021/11/23 08:29:01;;;;;;;3.10;1.00;;;;;;;;;;4994988;28;21906;-64
2021/11/23 08:31:26;;;;;;;3.60;1.13;;;;;;;;;;5000071;28;21283;-64
2021/11/23 08:33:52;;;;;;;3.20;0.87;;;;;;;;;;5002493;28;20239;-64
2021/11/23 08:36:17;;;;;;;3.00;1.07;;;;;;;;;;5002102;28;20235;-64
2021/11/23 08:38:43;;;;;;;4.03;1.17;;;;;;;;;;5003765;28;20216;-64
2021/11/23 08:41:10;;;;;;;1.87;1.03;;;;;;;;;;4999519;28;20216;-64
2021/11/23 08:43:36;;;;;;;4.53;0.80;;;;;;;;;;5002834;28;20242;-64
2021/11/23 08:46:01;;;;;;;2.60;0.90;;;;;;;;;;4997662;28;23836;-64
2021/11/23 08:48:26;;;;;;;4.83;1.03;;;;;;;;;;5000870;28;20204;-64
2021/11/23 08:50:52;;;;;;;3.53;1.10;;;;;;;;;;4999344;28;20219;-64
2021/11/23 08:53:17;;;;;;;4.23;0.90;;;;;;;;;;4996967;28;20181;-64
2021/11/23 08:55:43;;;;;;;2.43;0.80;;;;;;;;;;4993605;28;20185;-64
2021/11/23 08:58:08;;;;;;;7.60;1.13;;;;;;;;;;4998491;28;20690;-64
2021/11/23 09:00:35;;;;;;;0.90;0.60;;;;;;;;;;4990275;28;20263;-64
2021/11/23 09:03:01;;;;;;;4.10;0.90;;;;;;;;;;4991172;28;21106;-64
2021/11/23 09:05:31;;;;;;;3.73;1.00;;;;;;;;;;5002167;28;20434;-64
2021/11/23 09:07:59;;;;;;;5.10;0.97;;;;;;;;;;4997859;28;20184;-64
2021/11/23 09:10:25;;;;;;;2.77;0.83;;;;;;;;;;4983349;28;20870;-64
2021/11/23 09:12:51;;;;;;;2.00;0.77;;;;;;;;;;5003021;28;21524;-64
2021/11/23 09:15:18;;;;;;;4.40;1.17;;;;;;;;;;4995979;28;20434;-65
2021/11/23 09:17:43;;;;;;;3.70;1.03;;;;;;;;;;4991111;28;20517;-65
2021/11/23 09:20:10;;;;;;;3.20;0.90;;;;;;;;;;4991801;28;21074;-65
2021/11/23 09:22:36;;;;;;;4.03;1.17;;;;;;;;;;4990160;28;20212;-65
2021/11/23 09:25:02;;;;;;;3.33;0.80;;;;;;;;;;4990925;28;20794;-65
2021/11/23 09:27:27;;;;;;;1.67;0.70;;;;;;;;;;4991927;28;20795;-65
2021/11/23 09:29:52;;;;;;;3.33;1.03;;;;;;;;;;4994090;28;20676;-65
2021/11/23 09:32:18;;;;;;;5.90;1.00;;;;;;;;;;4993707;28;20189;-65
2021/11/23 09:34:43;;;;;;;4.27;1.27;;;;;;;;;;4989136;28;20189;-64
2021/11/23 09:37:09;;;;;;;2.50;0.80;;;;;;;;;;4991257;28;20636;-65
2021/11/23 09:39:34;;;;;;;6.27;1.20;;;;;;;;;;4995120;28;20603;-64
2021/11/23 09:42:00;;;;;;;8.53;1.10;;;;;;;;;;4997930;28;21661;-64
2021/11/23 09:44:26;;;;;;;3.27;1.30;;;;;;;;;;4995107;28;20192;-65
2021/11/23 09:53:22;;;;;;;4.03;1.20;;;;;;;;;;4993442;28;20488;-65
2021/11/23 10:01:46;;;;;;;8.33;2.20;;;;;;;;;;4994425;28;20469;-64
2021/11/23 10:04:11;;;;;;;6.80;1.90;;;;;;;;;;4985985;28;20641;-65
2021/11/23 10:06:51;;;;;;;7.07;3.00;;;;;;;;;;4994730;28;20518;-65
2021/11/23 10:09:24;;;;;;;5.67;2.00;;;;;;;;;;4990410;28;20284;-65
2021/11/23 10:11:50;;;;;;;3.87;1.03;;;;;;;;;;4997759;28;20535;-65
2021/11/23 10:14:15;;;;;;;5.97;1.33;;;;;;;;;;4998262;28;21131;-65
2021/11/23 10:16:52;;;;;;;5.83;1.20;;;;;;;;;;4999403;28;20196;-64
2021/11/23 10:19:23;;;;;;;5.93;1.43;;;;;;;;;;4996191;28;20205;-64
2021/11/23 10:21:53;;;;;;;1.70;1.23;;;;;;;;;;4998815;28;20471;-65
2021/11/23 10:24:19;;;;;;;5.60;1.53;;;;;;;;;;4998697;28;20432;-65
2021/11/23 10:26:45;;;;;;;6.27;1.80;;;;;;;;;;5000681;28;20467;-65
2021/11/23 10:29:10;;;;;;;6.97;1.90;;;;;;;;;;5006555;28;20893;-65
2021/11/23 10:31:37;;;;;;;6.43;2.17;;;;;;;;;;5009575;28;20199;-64
2021/11/23 10:34:07;;;;;;;11.10;2.40;;;;;;;;;;4997225;28;20559;-65
2021/11/23 10:36:36;;;;;;;11.07;3.00;;;;;;;;;;4995934;28;20540;-65
2021/11/23 10:56:55;;;;;;;6.20;1.43;;;;;;;;;;5152646;23;20517;-65
2021/11/23 10:59:20;;;;;;;3.30;1.10;;;;;;;;;;4986270;28;20470;-66
2021/11/23 11:01:46;;;;;;;6.20;1.20;;;;;;;;;;4995196;28;20618;-66
2021/11/23 11:04:13;;;;;;;11.90;1.60;;;;;;;;;;5003060;28;20227;-66
2021/11/23 11:06:38;;;;;;;7.53;1.20;;;;;;;;;;4982775;28;20209;-66
2021/11/23 11:09:04;;;;;;;1.90;0.80;;;;;;;;;;4979827;28;20436;-66
2021/11/23 11:11:29;;;;;;;3.40;0.70;;;;;;;;;;4980863;28;20311;-66
2021/11/23 11:13:54;;;;;;;4.60;0.87;;;;;;;;;;4978877;28;20194;-66
2021/11/23 11:16:21;;;;;;;2.57;0.70;;;;;;;;;;4975349;28;20205;-66
2021/11/23 11:19:16;;;;;;;1.47;0.70;;;;;;;;;;4979442;28;20199;-67
2021/11/23 11:21:47;;;;;;;3.00;0.80;;;;;;;;;;4966185;28;20475;-67
2021/11/23 11:24:29;;;;;;;1.67;0.60;;;;;;;;;;4973937;28;20471;-67
2021/11/23 11:27:01;;;;;;;1.97;0.80;;;;;;;;;;4976916;28;20567;-67
2021/11/23 11:29:29;;;;;;;6.87;1.13;;;;;;;;;;4973125;28;21048;-66
2021/11/23 11:31:55;;;;;;;6.00;1.03;;;;;;;;;;4981636;28;20443;-66
2021/11/23 11:34:22;;;;;;;4.13;0.90;;;;;;;;;;4980504;28;20467;-65
2021/11/23 11:36:49;;;;;;;3.40;0.90;;;;;;;;;;4975293;28;20292;-66
2021/11/23 11:39:33;;;;;;;3.70;0.97;;;;;;;;;;4982278;28;20467;-65
2021/11/23 11:41:58;;;;;;;1.63;1.00;;;;;;;;;;4979019;28;20472;-64
2021/11/23 11:44:35;;;;;;;13.50;1.43;;;;;;;;;;4978769;28;20510;-65
2021/11/23 11:47:01;;;;;;;2.57;0.70;;;;;;;;;;4980559;28;20205;-64
2021/11/23 11:49:45;;;;;;;4.20;0.83;;;;;;;;;;4983458;28;20467;-65
2021/11/23 11:52:10;;;;;;;3.80;1.00;;;;;;;;;;4980131;28;20428;-65
2021/11/23 11:54:36;;;;;;;4.73;1.10;;;;;;;;;;4978005;28;20470;-65
2021/11/23 11:57:01;;;;;;;2.00;0.77;;;;;;;;;;4977416;28;20217;-66
2021/11/23 11:59:31;;;;;;;4.20;1.20;;;;;;;;;;4976998;28;20195;-66
2021/11/23 12:02:03;;;;;;;5.30;1.30;;;;;;;;;;4978873;28;20200;-66
2021/11/23 12:04:31;;;;;;;2.83;0.70;;;;;;;;;;4978233;28;20505;-66
2021/11/23 12:06:56;;;;;;;5.40;1.37;;;;;;;;;;4981781;28;20460;-67
2021/11/23 12:09:31;;;;;;;3.43;1.10;;;;;;;;;;4979327;28;20494;-66
2021/11/23 12:12:01;;;;;;;5.60;0.90;;;;;;;;;;4983039;28;20181;-66
2021/11/23 12:14:28;;;;;;;2.40;1.07;;;;;;;;;;4984966;28;20531;-66
2021/11/23 12:17:24;;;;;;;3.43;1.07;;;;;;;;;;4974955;28;20486;-66
2021/11/23 12:20:02;;;;;;;2.40;0.90;;;;;;;;;;4964942;28;20446;-66
2021/11/23 12:22:36;;;;;;;3.17;0.90;;;;;;;;;;4982752;28;20828;-66
2021/11/23 12:25:03;;;;;;;2.50;0.73;;;;;;;;;;4976535;28;20812;-66
2021/11/23 12:27:32;;;;;;;2.40;0.90;;;;;;;;;;4977135;28;22557;-66
2021/11/23 12:29:57;;;;;;;7.13;1.17;;;;;;;;;;4981422;28;21127;-66
2021/11/23 12:32:30;;;;;;;3.07;1.27;;;;;;;;;;4977289;28;20443;-66
2021/11/23 12:34:55;;;;;;;8.97;1.20;;;;;;;;;;4983663;28;20193;-66
2021/11/23 12:37:34;;;;;;;4.53;1.07;;;;;;;;;;4977684;28;20440;-66
2021/11/23 12:40:30;;;;;;;2.50;0.77;;;;;;;;;;4973947;28;20239;-66
2021/11/23 12:42:59;;;;;;;1.97;0.80;;;;;;;;;;4966719;28;20481;-66
2021/11/23 12:45:33;;;;;;;6.10;1.10;;;;;;;;;;4976129;28;20484;-66
2021/11/23 12:47:59;;;;;;;3.17;0.90;;;;;;;;;;4972236;28;20548;-66
2021/11/23 12:50:27;;;;;;;4.50;1.20;;;;;;;;;;4979365;28;20448;-66
2021/11/23 12:53:00;;;;;;;4.73;1.00;;;;;;;;;;4977298;28;20188;-68
2021/11/23 12:55:25;;;;;;;7.13;1.57;;;;;;;;;;4972519;28;20455;-65
2021/11/23 12:57:52;;;;;;;6.70;1.43;;;;;;;;;;4969794;28;20456;-66
2021/11/23 13:00:19;;;;;;;3.03;1.00;;;;;;;;;;4968548;28;20205;-66
2021/11/23 13:02:51;;;;;;;5.00;0.90;;;;;;;;;;4967107;28;20467;-68
2021/11/23 13:05:23;;;;;;;2.80;1.43;;;;;;;;;;4964530;28;21229;-67
2021/11/23 13:07:52;;;;;;;3.73;0.80;;;;;;;;;;4970717;28;20454;-67
2021/11/23 13:10:28;;;;;;;2.87;0.90;;;;;;;;;;4972103;28;20476;-66
2021/11/23 13:13:00;;;;;;;4.93;0.90;;;;;;;;;;4969670;28;20447;-67
2021/11/23 13:15:26;;;;;;;2.67;0.90;;;;;;;;;;4969677;28;21401;-67
2021/11/23 13:18:03;;;;;;;2.03;0.90;;;;;;;;;;4972078;28;20450;-68
2021/11/23 13:20:45;;;;;;;2.03;0.70;;;;;;;;;;4979157;28;20439;-67
2021/11/23 13:23:11;;;;;;;2.10;0.70;;;;;;;;;;4984945;28;20537;-67
2021/11/23 13:25:36;;;;;;;1.47;0.80;;;;;;;;;;4978756;28;20456;-66
2021/11/23 13:28:01;;;;;;;1.40;0.70;;;;;;;;;;4980270;28;20196;-67
2021/11/23 13:30:32;;;;;;;2.10;0.80;;;;;;;;;;4985243;28;20264;-67
2021/11/23 13:33:09;;;;;;;5.50;0.93;;;;;;;;;;4984122;28;20185;-67
2021/11/23 13:35:34;;;;;;;1.90;0.90;;;;;;;;;;4980606;28;20455;-68
2021/11/23 13:38:00;;;;;;;3.23;1.23;;;;;;;;;;4988392;28;20432;-67
2021/11/23 13:40:26;;;;;;;3.57;1.10;;;;;;;;;;4995408;28;20263;-67
2021/11/23 13:42:52;;;;;;;3.83;0.93;;;;;;;;;;4996131;28;20350;-66
2021/11/23 13:45:20;;;;;;;4.33;1.13;;;;;;;;;;4992555;28;20502;-68
2021/11/23 13:47:46;;;;;;;2.70;0.90;;;;;;;;;;4995484;28;20667;-69
2021/11/23 13:50:13;;;;;;;5.73;1.00;;;;;;;;;;5000973;28;20486;-69
2021/11/23 13:52:39;;;;;;;2.30;0.83;;;;;;;;;;4998092;28;20189;-69
2021/11/23 13:55:21;;;;;;;2.50;0.97;;;;;;;;;;4992695;28;20447;-67
2021/11/23 13:57:48;;;;;;;2.80;1.07;;;;;;;;;;4996357;28;20197;-69
2021/11/23 14:00:18;;;;;;;5.87;1.10;;;;;;;;;;4990387;28;20494;-67
2021/11/23 14:02:45;;;;;;;2.93;0.90;;;;;;;;;;4980047;28;20515;-66
2021/11/23 14:05:11;;;;;;;2.50;1.20;;;;;;;;;;4976286;28;21131;-67
2021/11/23 14:07:50;;;;;;;3.70;0.90;;;;;;;;;;4972814;28;20980;-67
2021/11/23 14:10:25;;;;;;;5.10;1.17;;;;;;;;;;4979332;28;20528;-68
2021/11/23 14:12:50;;;;;;;2.73;1.50;;;;;;;;;;4984115;28;20845;-67
2021/11/23 14:15:17;;;;;;;7.87;1.20;;;;;;;;;;4987521;28;20456;-69
2021/11/23 14:17:57;;;;;;;4.23;1.10;;;;;;;;;;4983676;28;20192;-65
2021/11/23 14:20:23;;;;;;;3.00;1.03;;;;;;;;;;4987040;28;21222;-67
2021/11/23 14:22:48;;;;;;;4.73;1.00;;;;;;;;;;4985091;28;20562;-66
2021/11/23 14:25:21;;;;;;;2.63;0.80;;;;;;;;;;4981653;28;20456;-67
2021/11/23 14:27:51;;;;;;;2.97;1.00;;;;;;;;;;4976839;28;20812;-68
2021/11/23 14:30:16;;;;;;;2.60;0.87;;;;;;;;;;4981636;28;20926;-69
2021/11/23 14:32:44;;;;;;;4.17;0.87;;;;;;;;;;4977880;28;20440;-71
2021/11/23 14:35:10;;;;;;;3.53;1.20;;;;;;;;;;4977748;28;20293;-64
2021/11/23 14:37:35;;;;;;;1.57;0.93;;;;;;;;;;4983463;28;20861;-66
2021/11/23 14:40:02;;;;;;;1.60;0.77;;;;;;;;;;4983546;28;20200;-66
2021/11/23 14:42:27;;;;;;;1.37;0.80;;;;;;;;;;4981674;28;20399;-66
2021/11/23 14:44:52;;;;;;;2.03;0.70;;;;;;;;;;4982767;28;20813;-66
2021/11/23 14:47:18;;;;;;;2.20;0.80;;;;;;;;;;4978922;28;20643;-65
2021/11/23 14:49:44;;;;;;;3.00;0.90;;;;;;;;;;4982892;28;20200;-68
2021/11/23 14:52:10;;;;;;;2.70;1.00;;;;;;;;;;4978067;28;20276;-67
2021/11/23 14:54:35;;;;;;;1.43;0.87;;;;;;;;;;4972183;28;20483;-67
2021/11/23 14:57:01;;;;;;;3.87;0.93;;;;;;;;;;4977373;28;20480;-67
2021/11/23 14:59:26;;;;;;;2.40;0.90;;;;;;;;;;4983729;28;20264;-67
2021/11/23 15:01:51;;;;;;;3.87;1.00;;;;;;;;;;4983419;28;20197;-67
2021/11/23 15:04:18;;;;;;;2.20;0.80;;;;;;;;;;4980144;28;20185;-67
2021/11/23 15:06:43;;;;;;;4.20;0.87;;;;;;;;;;4983183;28;20228;-67
2021/11/23 15:09:09;;;;;;;6.23;1.50;;;;;;;;;;4982835;28;20864;-67
2021/11/23 15:11:34;;;;;;;6.50;1.20;;;;;;;;;;4982173;28;20177;-67